Aeroporto do Galeao, Brazil
Current Conditions -  °F | °C
As of 5:00 PM on Monday 26 Jan 2015 (Local Time) from SBSV Reporting Station
Few Clouds Few Clouds  
Wind Chill: 82°   Ceiling: Unl
Heat Index: 87°   Visibility: 6mi
Dew Point: 72°   Wind: 12mph
Humidity: 70%   Direction: 90°E
Pressure: 29.91"   Gusts: NA
Location:  13.39°S, 39.03°W
Report Text: SBSV 262000Z 09010KT 9999 FEW017 28/22 Q1013
Loading
Personal Weather Stations






























Interactive Weather Map New forecast layout! Learn more

10-Day Weather Forecast

Advertisements
Track Severe Weather on mobile